Saint Cloud, MN (56393)

11:31 PM CST on December 19, 2014 (GMT -0600)
Quail Meadows | Change Station
CLOSE
Current Station
Personal Weather Station
Location: St Cloud, MN
Elevation: 1039 ft
Nearby Weather Stations

Elev 1039 ft 45.58 °N, 94.22 °W | Updated 2 minutes ago

Overcast
Overcast
29.1 °F
Feels Like 21 °F
N
7.8
Wind Variable Wind from SSE

Today
High -- | Low -- °F
--% Chance of Precip.
Yesterday
High -- | Low -- °F
Precip. -- in
7:53 AM 4:35 PM
Waning Crescent, 4% visible
Pressure 30.18 in
Visibility 4.0 miles
Clouds Overcast 800 ft
Windchill 21 °F
Dew Point 28 °F
Humidity 95%
Rainfall 0.00 in
Snow Depth Not available.
UV 0 out of 12
Pollen .10 out of 12
Air Quality Not available.
Flu Activity Not available.
METAR KSTC 200453Z 15009KT 4SM BR OVC008 M01/M03 A3011 RMK AO2 SLP220 T10061028

More Conditions Fewer Conditions

Pressure 30.18 in
Visibility 4.0 miles
Clouds Overcast 800 ft
Windchill 21 °F
Dew Point 28 °F
Humidity 95%
Rainfall 0.00 in
Snow Depth Not available.
UV 0 out of 12
Pollen .10 out of 12
Air Quality Not available.
Flu Activity Not available.
METAR KSTC 200453Z 15009KT 4SM BR OVC008 M01/M03 A3011 RMK AO2 SLP220 T10061028

More Conditions Fewer Conditions

10-Day Weather Forecast

Almanac

Astronomy

Dec. 19, 2014 Rise Set
Actual Time
Civil Twilight
Nautical Twilight
Astronomical Twilight
Moon
Length of Visible Light
Length of Day
Tomorrow will be .
, % of the Moon is Illuminated

Today's Extremes

State Highs State Lows

Community

WunderPhotos

Upload Photos

1,779,141 photos uploaded!

WunderBlogs® & News

Nearby

Air Quality

  Air Quality AQ Index Pollutant
Not available.

Snow Depth

Station Depth Elevation

Earthquake Activity

City Distance Mag. Time & Date
Minimum magnitude displayed is 2.5.

Coastal Water Temperatures

Place Temperature

Nearby Weather Stations